• Join FlightAware (Why Join?)
  • Login
  • US Flag 
12:02PM EST


 

Airport Tracker/Info


-or-


 

Live Flight TrackerFlight Track Log ✈ N9627R ✈ 30-May-2012 ✈ KSDF - KDFW

Flight Track Log - Related Links

Times and Time Zones

All times are in EDT time to prevent confusion due to time zone crossing. See the N9627R flight status page for this flight to view local times or setup timezone preferences in your user account.

Time Position Orientation Groundspeed Altitude Reporting Facility
EDT Latitude Longitude Course Direction KTS MPH feet Rate Location/Type
09:27PM 38.1386 -85.8017 38° Northeast  Level FlightAware Approximate
09:27PM 38.2028 -85.7372 275° West 187 215 2,000  Level FAA TRACON SMA TRACON (SMA)
09:32PM 38.2186 -85.9978 236° Southwest 348 400 12,500 2,460 Climbing FAA TRACON SMA TRACON (SMA)
09:32PM 38.1789 -86.0739 236° Southwest 378 435 14,300 2,640 Climbing FAA TRACON SMA TRACON (SMA)
09:33PM 38.1422 -86.1442 236° Southwest 389 448 16,000 2,520 Climbing FAA TRACON SMA TRACON (SMA)
09:34PM 38.1003 -86.2242 236° Southwest 394 453 17,700 2,400 Climbing FAA TRACON SMA TRACON (SMA)
09:34PM 38.0561 -86.3069 236° Southwest 411 473 19,300 1,800 Climbing FAA TRACON SMA TRACON (SMA)
09:35PM 38.0117 -86.3911 237° Southwest 417 480 20,200 1,380 Climbing FAA TRACON SMA TRACON (SMA)
09:35PM 37.9844 -86.4450 236° Southwest 411 473 21,100 1,860 Climbing Indianapolis Center
09:36PM 37.9189 -86.5689 235° Southwest 421 484 23,200 1,440 Climbing Indianapolis Center
09:37PM 37.8508 -86.6925 236° Southwest 426 490 24,000 360 Climbing Indianapolis Center
09:38PM 37.7850 -86.8158 235° Southwest 431 496 24,000  Level Indianapolis Center
09:39PM 37.7167 -86.9414 236° Southwest 431 496 24,000  Level Indianapolis Center
09:40PM 37.6439 -87.0772 236° Southwest 436 502 24,000  Level Indianapolis Center
09:41PM 37.5775 -87.2025 236° Southwest 436 502 24,000  Level Indianapolis Center
09:42PM 37.5178 -87.3147 236° Southwest 436 502 24,000  Level Indianapolis Center
09:43PM 37.4511 -87.4394 234° Southwest 436 502 24,000  Level Indianapolis Center
09:44PM 37.4036 -87.5217 236° Southwest 442 509 24,000  Level Memphis Center
09:45PM 37.3375 -87.6439 235° Southwest 419 482 24,000  Level Memphis Center
09:46PM 37.2694 -87.7661 237° Southwest 431 496 24,000  Level Memphis Center
09:47PM 37.2053 -87.8881 235° Southwest 431 496 24,000  Level Memphis Center
09:48PM 37.1367 -88.0125 236° Southwest 431 496 24,000  Level Memphis Center
09:49PM 37.0642 -88.1472 235° Southwest 431 496 24,000  Level Memphis Center
09:50PM 36.9956 -88.2711 235° Southwest 431 496 24,000  Level Memphis Center
09:51PM 36.9289 -88.3922 234° Southwest 431 496 24,000  Level Memphis Center
09:52PM 36.8597 -88.5106 236° Southwest 431 496 24,100 900 Climbing Memphis Center
09:53PM 36.7928 -88.6339 234° Southwest 431 496 25,800 1,920 Climbing Memphis Center
09:54PM 36.7214 -88.7547 235° Southwest 431 496 28,000 1,080 Climbing Memphis Center
09:55PM 36.6561 -88.8722 234° Southwest 431 496 28,000  Level Memphis Center
09:56PM 36.5867 -88.9900 235° Southwest 431 496 28,000 -120 Level Memphis Center
09:57PM 36.5192 -89.1097 234° Southwest 431 496 27,800 -900 Descending Memphis Center
09:58PM 36.4514 -89.2244 235° Southwest 431 496 26,300 -900 Descending Memphis Center
09:59PM 36.3858 -89.3386 235° Southwest 431 496 26,000 -180 Descending Memphis Center
10:00PM 36.3097 -89.4711 235° Southwest 456 525 26,000  Level Memphis Center
10:01PM 36.2417 -89.5900 234° Southwest 456 525 26,000  Level Memphis Center
10:02PM 36.1694 -89.7117 234° Southwest 450 518 26,000  Level Memphis Center
10:03PM 36.0992 -89.8303 234° Southwest 450 518 26,000  Level Memphis Center
10:04PM 36.0286 -89.9514 234° Southwest 450 518 26,000  Level Memphis Center
10:05PM 35.9561 -90.0725 238° Southwest 450 518 26,000  Level Memphis Center
10:06PM 35.8917 -90.1981 240° Southwest 450 518 26,000  Level Memphis Center
10:07PM 35.8333 -90.3236 240° Southwest 438 504 26,000  Level Memphis Center
10:08PM 35.7728 -90.4542 242° Southwest 433 498 26,000  Level Memphis Center
10:09PM 35.7164 -90.5847 242° Southwest 433 498 26,000  Level Memphis Center
10:10PM 35.6556 -90.7250 241° Southwest 433 498 26,000  Level Memphis Center
10:11PM 35.5967 -90.8575 239° Southwest 433 498 26,000  Level Memphis Center
10:12PM 35.5356 -90.9847 241° Southwest 441 507 26,000  Level Memphis Center
10:13PM 35.4764 -91.1142 240° Southwest 441 507 26,000  Level Memphis Center
10:14PM 35.4172 -91.2411 240° Southwest 435 501 26,000  Level Memphis Center
10:15PM 35.3581 -91.3678 240° Southwest 435 501 26,000  Level Memphis Center
10:16PM 35.2964 -91.4967 240° Southwest 440 506 26,000  Level Memphis Center
10:17PM 35.2347 -91.6256 240° Southwest 440 506 26,000  Level Memphis Center
10:18PM 35.1814 -91.7392 240° Southwest 435 501 26,000  Level Memphis Center
10:19PM 35.1214 -91.8675 239° Southwest 440 506 26,000  Level Memphis Center
10:20PM 35.0592 -91.9933 240° Southwest 440 506 26,000  Level Memphis Center
10:21PM 34.9992 -92.1214 240° Southwest 440 506 26,000  Level Memphis Center
10:22PM 34.9389 -92.2494 240° Southwest 440 506 26,000  Level Memphis Center
10:23PM 34.8783 -92.3772 239° Southwest 440 506 26,000  Level Memphis Center
10:24PM 34.8158 -92.5047 240° Southwest 440 506 26,000  Level Memphis Center
10:25PM 34.7550 -92.6344 238° Southwest 440 506 26,000  Level Memphis Center
10:26PM 34.6922 -92.7567 241° Southwest 440 506 26,000  Level Memphis Center
10:27PM 34.6311 -92.8911 238° Southwest 440 506 26,000  Level Memphis Center
10:28PM 34.5681 -93.0156 239° Southwest 440 506 26,000  Level Memphis Center
10:29PM 34.5069 -93.1394 239° Southwest 440 506 26,000  Level Memphis Center
10:30PM 34.4436 -93.2658 240° Southwest 440 506 26,000  Level Memphis Center
10:31PM 34.3686 -93.4233 242° Southwest 447 514 26,000  Level Fort Worth Center
10:32PM 34.3122 -93.5542 250° West 447 514 26,000  Level Fort Worth Center
10:33PM 34.2706 -93.6942 253° West 441 507 26,000  Level Fort Worth Center
10:34PM 34.2350 -93.8339 252° West 441 507 26,000  Level Fort Worth Center
10:35PM 34.1972 -93.9736 250° West 441 507 26,000  Level Fort Worth Center
10:36PM 34.1569 -94.1106 252° West 441 507 26,000  Level Fort Worth Center
10:37PM 34.1150 -94.2653 250° West 441 507 26,000  Level Fort Worth Center
10:38PM 34.0747 -94.4019 251° West 441 507 26,000  Level Fort Worth Center
10:39PM 34.0361 -94.5389 251° West 441 507 26,000  Level Fort Worth Center
10:40PM 33.9956 -94.6778 251° West 441 507 26,000  Level Fort Worth Center
10:41PM 33.9567 -94.8167 250° West 441 507 26,000  Level Fort Worth Center
10:42PM 33.9136 -94.9558 251° West 441 507 26,000  Level Fort Worth Center
10:43PM 33.8744 -95.0894 252° West 441 507 26,000  Level Fort Worth Center
10:44PM 33.8353 -95.2331 248° West 446 513 26,000  Level Fort Worth Center
10:45PM 33.7894 -95.3692 245° Southwest 446 513 26,000  Level Fort Worth Center
10:46PM 33.7372 -95.5028 248° West 446 513 26,000 -660 Level Fort Worth Center
10:47PM 33.6972 -95.6233 246° West 438 504 24,700 -1,800 Descending Fort Worth Center
10:48PM 33.6492 -95.7542 245° Southwest 438 504 22,400 -2,400 Descending Fort Worth Center
10:49PM 33.5986 -95.8822 245° Southwest 438 504 19,900 -2,820 Descending Fort Worth Center
10:50PM 33.5458 -96.0153 246° West 412 474 16,800 -2,820 Descending Fort Worth Center
10:51PM 33.5053 -96.1231 251° West 398 458 14,300 -2,640 Descending Fort Worth Center
10:52PM 33.4825 -96.2019 245° Southwest 382 440 12,600 -2,580 Descending FAA TRACON SMA TRACON (SMA)
10:53PM 33.4531 -96.2789 243° Southwest 364 419 11,100 -1,260 Descending FAA TRACON SMA TRACON (SMA)
10:53PM 33.4278 -96.3389 244° Southwest 332 382 11,000 -120 Descending FAA TRACON SMA TRACON (SMA)
10:54PM 33.4031 -96.4003 226° Southwest 290 334 11,000 -480 Level FAA TRACON SMA TRACON (SMA)
10:55PM 33.3653 -96.4478 224° Southwest 285 328 10,400 -1,320 Descending FAA TRACON SMA TRACON (SMA)
10:55PM 33.3253 -96.4944 224° Southwest 290 334 9,300 -1,560 Descending FAA TRACON SMA TRACON (SMA)
10:56PM 33.2906 -96.5347 245° Southwest 283 326 8,300 -1,080 Descending FAA TRACON SMA TRACON (SMA)
10:57PM 33.2689 -96.5900 249° West 266 306 7,900 -840 Descending FAA TRACON SMA TRACON (SMA)
10:57PM 33.2528 -96.6400 253° West 235 270 7,200 -1,140 Descending FAA TRACON SMA TRACON (SMA)
10:58PM 33.2411 -96.6853 252° West 227 261 6,400 -1,260 Descending FAA TRACON SMA TRACON (SMA)
10:59PM 33.2278 -96.7333 251° West 223 257 5,600 -1,080 Descending FAA TRACON SMA TRACON (SMA)
10:59PM 33.2144 -96.7792 253° West 212 244 5,000 -480 Descending FAA TRACON SMA TRACON (SMA)
11:00PM 33.2036 -96.8208 252° West 214 246 5,000 -300 Level FAA TRACON SMA TRACON (SMA)
11:01PM 33.1906 -96.8678 251° West 216 249 4,600 -900 Descending FAA TRACON SMA TRACON (SMA)
11:01PM 33.1769 -96.9144 252° West 214 246 3,800 -1,020 Descending FAA TRACON SMA TRACON (SMA)
11:02PM 33.1653 -96.9564 245° Southwest 219 252 3,300 -660 Descending FAA TRACON SMA TRACON (SMA)
11:03PM 33.1500 -96.9964 208° Southwest 193 222 3,000 -240 Descending FAA TRACON SMA TRACON (SMA)
11:03PM 33.1203 -97.0150 196° South 173 199 3,000  Level FAA TRACON SMA TRACON (SMA)
11:04PM 33.0928 -97.0242 183° South 168 193 3,000  Level FAA TRACON SMA TRACON (SMA)
11:05PM 33.0625 -97.0258 181° South 158 182 3,000 -240 Level FAA TRACON SMA TRACON (SMA)
11:05PM 33.0314 -97.0264 180° South 159 183 2,700 -540 Descending FAA TRACON SMA TRACON (SMA)
11:06PM 33.0064 -97.0264 180° South 145 167 2,300 -720 Descending FAA TRACON SMA TRACON (SMA)
11:07PM 32.9794 -97.0264 180° South 139 160 1,800 -780 Descending FAA TRACON SMA TRACON (SMA)